Time;durP1;ratioP1;P1;durP2;ratioP2;P2;SDS_P1;SDS_P2;PMS_P1;PMS_P2;Temp;Humidity;BMP_temperature;BMP_pressure;BME280_temperature;BME280_humidity;BME280_pressure;Samples;Min_cycle;Max_cycle;Signal;HPM_P1;HPM_P2
2022/08/10 00:01:08;;;;;;;6.40;3.20;;;15.50;99.90;;;;;;5036237;28;20055;-78
2022/08/10 00:03:34;;;;;;;3.67;3.13;;;15.60;99.90;;;;;;5036356;28;20048;-77
2022/08/10 00:06:00;;;;;;;5.00;3.55;;;15.50;99.90;;;;;;5036398;28;20045;-78
2022/08/10 00:08:25;;;;;;;3.67;2.85;;;15.60;99.90;;;;;;5036732;28;20399;-78
2022/08/10 00:10:55;;;;;;;4.32;2.92;;;15.50;99.90;;;;;;5036065;28;20040;-78
2022/08/10 00:13:22;;;;;;;5.13;3.10;;;15.50;99.90;;;;;;5036325;28;20464;-78
2022/08/10 00:15:49;;;;;;;4.80;3.40;;;15.40;99.90;;;;;;5036231;28;20128;-78
2022/08/10 00:18:14;;;;;;;5.22;3.30;;;15.40;99.90;;;;;;5036132;28;20080;-77
2022/08/10 00:20:40;;;;;;;6.18;3.55;;;15.30;99.90;;;;;;5035719;28;20044;-78
2022/08/10 00:23:05;;;;;;;5.03;3.30;;;15.40;99.90;;;;;;5036156;28;20045;-78
2022/08/10 00:25:31;;;;;;;4.00;3.42;;;15.40;99.90;;;;;;5052403;28;20040;-77
2022/08/10 00:27:57;;;;;;;4.75;3.53;;;15.30;99.90;;;;;;5036075;28;20128;-77
2022/08/10 00:30:22;;;;;;;4.95;3.40;;;15.30;99.90;;;;;;5053421;28;20052;-78
2022/08/10 00:32:48;;;;;;;4.70;3.72;;;15.30;99.90;;;;;;5036063;28;20041;-78
2022/08/10 00:35:13;;;;;;;4.82;3.38;;;15.30;99.90;;;;;;5035907;28;20044;-78
2022/08/10 00:37:39;;;;;;;3.70;3.30;;;15.30;99.90;;;;;;5035852;28;20087;-77
2022/08/10 00:40:05;;;;;;;5.60;3.65;;;15.20;99.90;;;;;;5035625;28;20044;-77
2022/08/10 00:42:31;;;;;;;5.03;3.88;;;15.20;99.90;;;;;;5035698;28;20099;-78
2022/08/10 00:44:56;;;;;;;5.55;3.92;;;15.20;99.90;;;;;;5035565;28;20068;-78
2022/08/10 00:47:22;;;;;;;7.65;4.25;;;15.20;99.90;;;;;;5035923;28;20487;-78
2022/08/10 00:49:48;;;;;;;5.25;3.88;;;15.20;99.90;;;;;;5035179;28;20045;-77
2022/08/10 00:52:16;;;;;;;8.52;5.10;;;15.10;99.90;;;;;;5035855;28;20056;-78
2022/08/10 00:54:43;;;;;;;5.95;3.65;;;15.10;99.90;;;;;;5035710;28;20077;-77
2022/08/10 00:57:10;;;;;;;7.30;4.53;;;15.10;99.90;;;;;;5035438;28;20215;-78
2022/08/10 00:59:36;;;;;;;7.00;4.70;;;15.10;99.90;;;;;;5035155;28;20053;-77
2022/08/10 01:02:01;;;;;;;5.40;3.72;;;15.10;99.90;;;;;;5053024;28;20036;-77
2022/08/10 01:04:27;;;;;;;6.75;4.70;;;15.10;99.90;;;;;;5053371;28;20120;-77
2022/08/10 01:07:06;;;;;;;6.22;4.78;;;15.10;99.90;;;;;;5054213;28;20032;-78
2022/08/10 01:10:06;;;;;;;6.93;4.03;;;15.10;99.90;;;;;;5046877;28;20044;-78
2022/08/10 01:12:45;;;;;;;7.13;4.65;;;15.10;99.90;;;;;;5035110;28;20056;-77
2022/08/10 01:15:17;;;;;;;7.80;4.53;;;15.00;99.90;;;;;;5053170;28;20048;-77
2022/08/10 01:17:53;;;;;;;8.57;4.65;;;15.00;99.90;;;;;;5035110;28;20132;-77
2022/08/10 01:20:30;;;;;;;7.28;4.43;;;15.00;99.90;;;;;;5034639;28;20052;-77
2022/08/10 01:23:25;;;;;;;8.13;4.78;;;14.90;99.90;;;;;;5034976;28;20049;-77
2022/08/10 01:26:19;;;;;;;8.88;4.93;;;14.90;99.90;;;;;;5034998;28;20062;-77
2022/08/10 01:29:11;;;;;;;7.38;4.75;;;14.90;99.90;;;;;;5027741;28;20132;-77
2022/08/10 01:31:43;;;;;;;7.28;4.68;;;14.80;99.90;;;;;;5022053;28;20037;-76
2022/08/10 01:34:43;;;;;;;9.82;5.43;;;14.80;99.90;;;;;;5038828;28;20040;-78
2022/08/10 01:37:17;;;;;;;7.45;5.03;;;14.80;99.90;;;;;;5023520;28;20060;-77
2022/08/10 01:39:47;;;;;;;6.88;4.68;;;14.80;99.90;;;;;;5038321;28;20123;-77
2022/08/10 01:42:17;;;;;;;7.93;5.18;;;14.80;99.90;;;;;;5038339;28;20033;-77
2022/08/10 01:44:55;;;;;;;6.85;4.95;;;14.90;99.90;;;;;;5037840;28;20404;-77
2022/08/10 01:50:34;;;;;;;8.73;5.10;;;14.80;99.90;;;;;;5038251;28;20506;-77
2022/08/10 01:53:09;;;;;;;8.98;4.82;;;14.80;99.90;;;;;;5037494;28;20044;-76
2022/08/10 01:55:37;;;;;;;9.30;5.05;;;14.90;99.90;;;;;;5038497;28;20049;-77
2022/08/10 01:58:05;;;;;;;8.43;5.10;;;14.80;99.90;;;;;;5037820;28;20045;-77
2022/08/10 02:00:33;;;;;;;7.53;4.60;;;14.80;99.90;;;;;;5037451;28;20384;-78
2022/08/10 02:03:00;;;;;;;6.45;4.50;;;14.70;99.90;;;;;;5036685;28;20044;-78
2022/08/10 02:05:28;;;;;;;8.82;5.28;;;14.80;99.90;;;;;;5037529;28;20593;-78
2022/08/10 02:07:55;;;;;;;8.75;5.50;;;14.70;99.90;;;;;;5021085;28;20037;-77
2022/08/10 02:10:23;;;;;;;7.75;5.10;;;14.60;99.90;;;;;;5054389;28;20044;-78
2022/08/10 02:12:49;;;;;;;7.85;4.93;;;14.60;99.90;;;;;;5037093;28;20077;-77
2022/08/10 02:15:20;;;;;;;9.15;5.15;;;14.60;99.90;;;;;;5053671;28;20587;-77
2022/08/10 02:17:51;;;;;;;9.68;5.95;;;14.60;99.90;;;;;;5037576;28;20488;-77
2022/08/10 02:20:21;;;;;;;8.48;5.05;;;14.60;99.90;;;;;;5036669;28;20055;-77
2022/08/10 02:22:59;;;;;;;8.70;5.68;;;14.50;99.90;;;;;;5037151;28;20049;-77
2022/08/10 02:25:26;;;;;;;10.95;5.75;;;14.50;99.90;;;;;;5036569;28;20090;-77
2022/08/10 02:27:52;;;;;;;8.73;5.85;;;14.50;99.90;;;;;;5036602;28;20044;-78
2022/08/10 02:30:19;;;;;;;10.75;5.88;;;14.50;99.90;;;;;;5036202;28;20484;-77
2022/08/10 02:32:48;;;;;;;12.05;6.07;;;14.50;99.90;;;;;;5035694;28;20045;-77
2022/08/10 02:35:14;;;;;;;12.38;6.03;;;14.40;99.90;;;;;;5037005;28;20067;-77
2022/08/10 02:37:45;;;;;;;8.70;5.60;;;14.50;99.90;;;;;;5037113;28;20049;-77
2022/08/10 02:40:11;;;;;;;10.00;6.13;;;14.50;99.90;;;;;;5035888;28;20067;-77
2022/08/10 02:42:56;;;;;;;8.88;5.70;;;14.50;99.90;;;;;;5019173;28;20122;-78
2022/08/10 02:45:32;;;;;;;12.70;7.25;;;14.50;99.90;;;;;;5036197;28;20037;-78
2022/08/10 02:48:08;;;;;;;11.85;6.53;;;14.50;99.90;;;;;;5035528;28;20039;-78
2022/08/10 02:50:35;;;;;;;10.80;6.07;;;14.50;99.90;;;;;;5018426;28;20032;-77
2022/08/10 02:53:05;;;;;;;11.07;6.68;;;14.50;99.90;;;;;;5035336;28;20515;-77
2022/08/10 02:55:43;;;;;;;11.85;7.10;;;14.50;99.90;;;;;;5034782;28;20063;-77
2022/08/10 02:58:14;;;;;;;11.18;6.13;;;14.40;99.90;;;;;;5038249;28;20139;-78
2022/08/10 03:00:50;;;;;;;11.23;6.45;;;14.40;99.90;;;;;;5036690;28;20041;-76
2022/08/10 03:03:24;;;;;;;16.13;7.32;;;14.50;99.90;;;;;;5034889;28;20477;-77
2022/08/10 03:05:54;;;;;;;12.75;6.72;;;14.40;99.90;;;;;;5035113;28;20041;-76
2022/08/10 03:08:24;;;;;;;13.55;6.55;;;14.40;99.90;;;;;;5034585;28;20101;-76
2022/08/10 03:10:51;;;;;;;11.20;6.30;;;14.40;99.90;;;;;;5034261;28;20528;-76
2022/08/10 03:13:18;;;;;;;13.25;7.18;;;14.30;99.90;;;;;;5034881;28;20128;-77
2022/08/10 03:15:44;;;;;;;11.43;7.25;;;14.40;99.90;;;;;;5035198;28;20350;-78
2022/08/10 03:18:12;;;;;;;13.40;6.68;;;14.40;99.90;;;;;;5034763;28;20052;-76
2022/08/10 03:20:40;;;;;;;12.32;7.50;;;14.40;99.90;;;;;;5034125;28;20051;-78
2022/08/10 03:23:16;;;;;;;13.32;7.00;;;14.40;99.90;;;;;;5033545;28;20044;-78
2022/08/10 03:25:44;;;;;;;11.65;7.30;;;14.40;99.90;;;;;;5034315;28;20142;-78
2022/08/10 03:28:10;;;;;;;14.32;7.88;;;14.40;99.90;;;;;;5037494;28;20048;-78
2022/08/10 03:30:36;;;;;;;12.07;7.70;;;14.40;99.90;;;;;;5037447;28;20033;-78
2022/08/10 03:33:05;;;;;;;12.32;7.68;;;14.40;99.90;;;;;;5037250;28;20128;-78
2022/08/10 03:35:31;;;;;;;12.85;6.63;;;14.30;99.90;;;;;;5037734;28;20084;-77
2022/08/10 03:37:56;;;;;;;14.65;8.10;;;14.20;99.90;;;;;;5037539;28;20087;-78
2022/08/10 03:40:23;;;;;;;12.93;7.40;;;14.30;99.90;;;;;;5036994;28;20045;-78
2022/08/10 03:42:50;;;;;;;15.20;8.23;;;14.20;99.90;;;;;;5037189;28;20037;-77
2022/08/10 03:45:16;;;;;;;13.00;8.05;;;14.30;99.90;;;;;;5054948;28;20546;-78
2022/08/10 03:47:45;;;;;;;12.30;7.10;;;14.20;99.90;;;;;;5055192;28;20099;-78
2022/08/10 03:50:12;;;;;;;18.75;7.20;;;14.20;99.90;;;;;;5036919;28;20041;-78
2022/08/10 03:52:38;;;;;;;14.27;7.93;;;14.10;99.90;;;;;;5036954;28;20036;-78
2022/08/10 03:55:04;;;;;;;14.02;7.72;;;14.20;99.90;;;;;;5020410;28;20052;-78
2022/08/10 03:57:30;;;;;;;14.57;8.20;;;14.20;99.90;;;;;;5036836;28;20041;-78
2022/08/10 03:59:56;;;;;;;13.23;7.60;;;14.20;99.90;;;;;;5036607;28;20048;-78
2022/08/10 04:02:23;;;;;;;12.15;7.95;;;14.20;99.90;;;;;;5037044;28;20049;-78
2022/08/10 04:04:49;;;;;;;14.65;7.60;;;14.30;99.90;;;;;;5036751;28;20045;-78
2022/08/10 04:07:14;;;;;;;13.90;7.78;;;14.20;99.90;;;;;;5036847;28;20051;-78
2022/08/10 04:09:40;;;;;;;13.43;8.32;;;14.20;99.90;;;;;;5036478;28;20487;-78
2022/08/10 04:12:06;;;;;;;17.58;8.13;;;14.20;99.90;;;;;;5036400;28;20047;-78
2022/08/10 04:14:32;;;;;;;12.63;7.70;;;14.20;99.90;;;;;;5036581;28;20044;-76
2022/08/10 04:16:57;;;;;;;11.93;7.35;;;14.20;99.90;;;;;;5020208;28;20047;-78
2022/08/10 04:19:26;;;;;;;12.82;7.32;;;14.20;99.90;;;;;;5036355;28;20052;-78
2022/08/10 04:22:01;;;;;;;13.65;7.93;;;14.20;99.90;;;;;;5036052;28;20067;-78
2022/08/10 04:24:29;;;;;;;12.77;7.35;;;14.20;99.90;;;;;;5036477;28;20055;-78
2022/08/10 04:26:54;;;;;;;13.63;7.68;;;14.30;99.90;;;;;;5036639;28;20098;-78
2022/08/10 04:29:20;;;;;;;13.02;7.40;;;14.30;99.90;;;;;;5036165;28;20045;-77
2022/08/10 04:31:47;;;;;;;16.33;7.93;;;14.30;99.90;;;;;;5019311;28;20041;-78
2022/08/10 04:34:14;;;;;;;17.50;8.63;;;14.30;99.90;;;;;;5054198;28;20041;-78
2022/08/10 04:36:41;;;;;;;19.90;7.88;;;14.30;99.90;;;;;;5036675;28;20369;-78
2022/08/10 04:39:07;;;;;;;15.40;8.98;;;14.30;99.90;;;;;;5035258;28;20045;-78
2022/08/10 04:41:34;;;;;;;15.40;8.60;;;14.30;99.90;;;;;;5035585;28;20099;-78
2022/08/10 04:44:00;;;;;;;15.73;9.10;;;14.30;99.90;;;;;;5036023;28;20048;-78
2022/08/10 04:46:26;;;;;;;16.45;8.93;;;14.20;99.90;;;;;;5036114;28;20167;-78
2022/08/10 04:48:51;;;;;;;18.70;7.82;;;14.30;99.90;;;;;;5036229;28;20044;-77
2022/08/10 04:51:17;;;;;;;13.93;8.43;;;14.30;99.90;;;;;;5035544;28;20040;-78
2022/08/10 04:53:44;;;;;;;14.85;8.20;;;14.40;99.90;;;;;;5035961;28;20385;-75
2022/08/10 04:56:10;;;;;;;14.02;7.78;;;14.40;99.90;;;;;;5035993;28;20369;-78
2022/08/10 04:58:35;;;;;;;17.95;7.97;;;14.40;99.90;;;;;;5019291;28;20048;-78
2022/08/10 05:01:02;;;;;;;14.80;8.77;;;14.40;99.90;;;;;;5035481;28;20040;-77
2022/08/10 05:03:28;;;;;;;15.88;8.80;;;14.40;99.90;;;;;;5035440;28;20123;-78
2022/08/10 05:05:53;;;;;;;15.07;8.25;;;14.50;99.90;;;;;;5035902;28;20124;-78
2022/08/10 05:08:19;;;;;;;12.15;7.45;;;14.70;99.90;;;;;;5035731;28;20072;-78
2022/08/10 05:10:44;;;;;;;14.93;7.82;;;14.90;99.90;;;;;;5035061;28;20033;-78
2022/08/10 05:13:10;;;;;;;15.13;7.85;;;15.10;99.90;;;;;;5035520;28;20045;-78
2022/08/10 05:15:36;;;;;;;13.35;8.15;;;15.50;99.90;;;;;;5036077;28;20052;-78
2022/08/10 05:18:01;;;;;;;17.58;8.15;;;16.00;99.90;;;;;;5035752;28;20400;-79
2022/08/10 05:20:27;;;;;;;11.10;7.68;;;16.40;99.90;;;;;;5035182;28;20044;-78
2022/08/10 05:22:53;;;;;;;13.35;7.38;;;16.70;99.90;;;;;;5035515;28;20491;-78
2022/08/10 05:25:19;;;;;;;11.15;7.18;;;17.10;99.90;;;;;;5035365;28;20052;-78
2022/08/10 05:27:46;;;;;;;10.85;7.15;;;17.40;99.90;;;;;;5035363;28;20037;-78
2022/08/10 05:30:17;;;;;;;15.52;7.75;;;17.70;99.90;;;;;;5034952;28;20037;-79
2022/08/10 05:32:43;;;;;;;13.23;7.53;;;17.90;99.90;;;;;;5053938;28;20032;-78
2022/08/10 05:35:08;;;;;;;12.38;7.47;;;18.00;99.90;;;;;;5059650;28;20039;-76
2022/08/10 05:37:35;;;;;;;10.57;7.50;;;18.20;99.90;;;;;;5059080;28;20411;-78
2022/08/10 05:40:04;;;;;;;10.57;7.00;;;18.40;99.90;;;;;;5034093;28;20041;-78
2022/08/10 05:42:30;;;;;;;10.68;6.72;;;18.60;99.90;;;;;;5034541;28;20124;-79
2022/08/10 05:44:56;;;;;;;9.70;6.18;;;18.80;99.90;;;;;;5018114;28;20128;-79
2022/08/10 05:47:21;;;;;;;8.88;6.20;;;18.90;99.90;;;;;;5034514;28;20057;-79
2022/08/10 05:49:48;;;;;;;9.48;6.35;;;18.90;99.90;;;;;;5034129;28;20045;-79
2022/08/10 05:52:16;;;;;;;9.85;6.60;;;19.10;99.90;;;;;;5034454;28;20492;-79
2022/08/10 05:54:42;;;;;;;9.93;6.78;;;19.20;99.90;;;;;;5034241;28;20095;-79
2022/08/10 05:57:10;;;;;;;10.68;6.25;;;19.20;99.90;;;;;;5034841;28;20148;-78
2022/08/10 05:59:42;;;;;;;7.43;5.97;;;19.10;99.90;;;;;;5033995;28;20052;-79
2022/08/10 06:02:08;;;;;;;8.95;6.20;;;19.00;99.90;;;;;;5051959;28;20033;-78
2022/08/10 06:04:39;;;;;;;8.82;6.13;;;18.90;99.90;;;;;;5034520;28;20094;-79
2022/08/10 06:07:06;;;;;;;11.90;6.57;;;18.70;99.90;;;;;;5034177;28;20037;-79
2022/08/10 06:09:34;;;;;;;7.85;6.15;;;18.60;99.90;;;;;;5034130;28;20041;-79
2022/08/10 06:12:01;;;;;;;9.88;6.70;;;18.50;99.90;;;;;;5050970;28;20538;-78
2022/08/10 06:17:13;;;;;;;8.82;6.13;;;19.10;99.90;;;;;;5052133;28;20047;-79
2022/08/10 06:19:40;;;;;;;10.82;5.70;;;19.50;99.90;;;;;;5034051;28;20455;-78
2022/08/10 06:22:06;;;;;;;9.98;6.07;;;19.80;99.90;;;;;;5034018;28;20048;-79
2022/08/10 06:24:36;;;;;;;7.80;5.72;;;19.90;99.90;;;;;;5034759;28;20101;-79
2022/08/10 06:27:02;;;;;;;7.28;5.80;;;20.10;99.90;;;;;;5034545;28;20098;-79
2022/08/10 06:29:31;;;;;;;8.88;6.03;;;20.20;99.90;;;;;;5034241;28;20385;-79
2022/08/10 06:31:58;;;;;;;7.50;5.63;;;20.40;99.90;;;;;;5034423;28;20036;-78
2022/08/10 06:34:28;;;;;;;8.75;5.60;;;20.50;99.90;;;;;;5034617;28;20040;-77
2022/08/10 06:36:56;;;;;;;7.30;5.25;;;20.80;99.90;;;;;;5052744;28;20398;-79
2022/08/10 06:39:22;;;;;;;9.18;6.00;;;21.00;99.90;;;;;;5036551;28;20044;-75
2022/08/10 06:41:52;;;;;;;9.48;6.28;;;21.30;99.90;;;;;;5034723;28;20040;-77
2022/08/10 06:44:24;;;;;;;8.73;5.15;;;21.30;99.90;;;;;;5050592;28;20033;-79
2022/08/10 06:46:51;;;;;;;6.60;5.72;;;21.40;99.90;;;;;;5034493;28;20052;-78
2022/08/10 06:49:21;;;;;;;7.30;5.20;;;21.40;99.90;;;;;;5020164;28;20044;-78
2022/08/10 06:51:53;;;;;;;7.97;5.38;;;21.50;99.90;;;;;;5035705;28;20058;-78
2022/08/10 06:54:23;;;;;;;6.35;4.80;;;21.60;99.90;;;;;;5035834;28;20033;-78
2022/08/10 06:56:52;;;;;;;7.60;5.07;;;21.80;99.90;;;;;;5035115;28;20040;-78
2022/08/10 06:59:17;;;;;;;8.65;5.57;;;21.90;99.90;;;;;;5019160;28;20048;-78
2022/08/10 07:01:46;;;;;;;5.43;4.47;;;21.60;99.90;;;;;;5052527;28;20095;-78
2022/08/10 07:04:22;;;;;;;7.97;4.80;;;21.50;99.90;;;;;;5035971;28;20756;-79
2022/08/10 07:06:49;;;;;;;6.90;4.55;;;21.40;99.90;;;;;;5037805;28;20101;-78
2022/08/10 07:09:17;;;;;;;6.20;4.30;;;21.40;99.90;;;;;;5036293;28;20387;-78
2022/08/10 07:11:44;;;;;;;7.45;4.43;;;21.40;99.90;;;;;;5036120;28;20045;-79
2022/08/10 07:14:11;;;;;;;7.88;4.70;;;21.40;99.90;;;;;;5036500;28;20040;-78
2022/08/10 07:16:41;;;;;;;8.60;4.03;;;21.40;99.90;;;;;;5052882;28;20113;-79
2022/08/10 07:19:09;;;;;;;8.52;4.50;;;21.40;99.90;;;;;;5036372;28;20067;-79
2022/08/10 07:21:38;;;;;;;6.13;4.10;;;21.30;99.90;;;;;;5055932;28;20120;-79
2022/08/10 07:24:06;;;;;;;7.28;4.50;;;21.20;99.90;;;;;;5021633;28;20041;-79
2022/08/10 07:26:35;;;;;;;6.20;4.18;;;21.40;99.90;;;;;;5040451;28;20045;-78
2022/08/10 07:29:01;;;;;;;9.70;4.38;;;21.60;99.90;;;;;;5038508;28;20033;-79
2022/08/10 07:31:29;;;;;;;5.10;4.07;;;22.30;99.90;;;;;;5039171;28;20044;-78
2022/08/10 07:33:56;;;;;;;4.63;3.88;;;22.90;99.90;;;;;;5038197;28;20055;-79
2022/08/10 07:36:24;;;;;;;3.67;3.33;;;23.40;99.90;;;;;;5038144;28;20503;-78
2022/08/10 07:38:53;;;;;;;8.60;4.85;;;23.70;99.90;;;;;;5038621;28;20053;-77
2022/08/10 07:41:22;;;;;;;5.68;4.00;;;24.10;99.90;;;;;;5022311;28;20105;-79
2022/08/10 07:43:49;;;;;;;5.43;3.65;;;24.40;99.90;;;;;;5020905;28;20052;-79
2022/08/10 07:46:15;;;;;;;5.35;3.75;;;24.70;99.90;;;;;;5038804;28;20147;-79
2022/08/10 07:48:48;;;;;;;4.40;3.45;;;25.00;99.90;;;;;;5037989;28;20075;-78
2022/08/10 07:51:17;;;;;;;8.38;3.50;;;25.10;99.90;;;;;;5016212;28;20067;-78
2022/08/10 07:53:46;;;;;;;5.80;3.30;;;25.30;99.90;;;;;;5016491;28;20049;-78
2022/08/10 07:56:14;;;;;;;6.07;3.30;;;25.30;99.90;;;;;;5032861;28;20528;-79
2022/08/10 07:58:49;;;;;;;6.05;3.95;;;25.40;99.90;;;;;;5032825;28;20496;-78
2022/08/10 08:01:16;;;;;;;5.05;3.20;;;25.50;99.90;;;;;;5032604;28;20041;-78
2022/08/10 08:03:43;;;;;;;5.63;3.45;;;25.30;99.90;;;;;;5032668;28;20502;-78
2022/08/10 08:06:09;;;;;;;7.53;4.00;;;25.10;99.90;;;;;;5032782;28;20048;-78
2022/08/10 08:08:39;;;;;;;4.55;3.03;;;25.10;99.90;;;;;;5032649;28;20130;-78
2022/08/10 08:11:05;;;;;;;3.70;2.65;;;25.20;99.90;;;;;;5016023;28;20527;-79
2022/08/10 08:13:32;;;;;;;4.88;3.10;;;25.40;99.90;;;;;;5034940;28;20081;-78
2022/08/10 08:15:59;;;;;;;3.72;2.63;;;25.70;99.90;;;;;;5036545;28;20044;-78
2022/08/10 08:18:27;;;;;;;4.10;3.00;;;25.80;99.90;;;;;;5037159;28;20041;-79
2022/08/10 08:20:54;;;;;;;3.25;2.55;;;26.00;99.90;;;;;;5020763;28;20045;-79
2022/08/10 08:23:20;;;;;;;6.50;3.30;;;25.90;99.90;;;;;;5036225;28;20048;-79
2022/08/10 08:25:47;;;;;;;6.60;3.25;;;25.90;99.90;;;;;;5036219;28;20036;-79
2022/08/10 08:28:14;;;;;;;4.63;2.35;;;26.20;99.90;;;;;;5036167;28;20091;-79
2022/08/10 08:30:40;;;;;;;5.15;2.55;;;26.20;99.90;;;;;;5035692;28;20055;-79
2022/08/10 08:33:11;;;;;;;5.60;3.17;;;26.40;99.90;;;;;;5036531;28;20056;-78
2022/08/10 08:35:37;;;;;;;3.10;2.47;;;26.50;99.90;;;;;;5036102;28;20098;-79
2022/08/10 08:38:05;;;;;;;3.35;2.22;;;26.40;99.90;;;;;;5035895;28;20041;-79
2022/08/10 08:40:33;;;;;;;4.93;2.90;;;26.50;99.90;;;;;;5035680;28;20045;-79
2022/08/10 08:43:10;;;;;;;4.65;2.78;;;26.60;99.90;;;;;;5054190;28;20091;-79
2022/08/10 08:46:17;;;;;;;5.75;2.20;;;26.60;99.90;;;;;;5019349;28;20135;-79
2022/08/10 08:48:45;;;;;;;3.78;2.33;;;26.80;99.90;;;;;;5054658;28;20048;-79
2022/08/10 08:51:24;;;;;;;5.72;2.50;;;27.00;99.90;;;;;;5035362;28;20151;-76
2022/08/10 08:54:01;;;;;;;3.90;1.63;;;27.00;99.90;;;;;;5035667;28;20049;-76
2022/08/10 08:56:38;;;;;;;4.85;2.30;;;27.10;99.90;;;;;;5035799;28;20091;-76
2022/08/10 08:59:40;;;;;;;3.38;1.70;;;27.20;99.90;;;;;;5035800;28;20071;-77
2022/08/10 09:02:34;;;;;;;5.10;1.88;;;27.20;99.90;;;;;;5035880;28;20064;-76
2022/08/10 09:05:02;;;;;;;3.05;1.92;;;27.50;98.70;;;;;;5031446;28;20297;-79
2022/08/10 09:07:45;;;;;;;2.38;1.77;;;27.80;99.80;;;;;;5044538;28;20049;-77
2022/08/10 09:10:38;;;;;;;4.40;1.88;;;27.80;96.20;;;;;;5034942;28;20072;-76
2022/08/10 09:13:25;;;;;;;4.93;1.80;;;27.90;98.00;;;;;;5035432;28;20083;-76
2022/08/10 09:16:20;;;;;;;3.30;2.00;;;27.90;97.30;;;;;;5035382;28;20044;-76
2022/08/10 09:19:21;;;;;;;3.15;1.58;;;28.10;95.40;;;;;;5018873;28;20045;-77
2022/08/10 09:22:20;;;;;;;4.28;1.63;;;28.00;94.00;;;;;;5018624;28;20080;-77
2022/08/10 09:25:08;;;;;;;4.18;1.60;;;28.10;94.90;;;;;;5034670;28;20048;-76
2022/08/10 09:27:40;;;;;;;3.08;1.33;;;28.30;94.40;;;;;;5035302;28;20075;-76
2022/08/10 09:30:09;;;;;;;3.10;1.67;;;28.30;92.50;;;;;;5052538;28;20052;-76
2022/08/10 09:32:47;;;;;;;3.35;1.38;;;28.50;91.30;;;;;;5018640;28;20075;-77
2022/08/10 09:35:31;;;;;;;3.63;1.40;;;28.50;92.20;;;;;;5018506;28;20068;-76
2022/08/10 09:38:28;;;;;;;2.97;1.10;;;28.50;92.00;;;;;;5034866;28;20073;-78
2022/08/10 09:41:04;;;;;;;4.00;1.20;;;28.60;84.20;;;;;;5034349;28;20048;-76
2022/08/10 09:43:35;;;;;;;2.85;1.00;;;28.50;83.80;;;;;;5052482;28;20041;-76
2022/08/10 09:46:32;;;;;;;3.05;1.10;;;28.60;87.70;;;;;;5018078;28;20507;-76
2022/08/10 09:49:23;;;;;;;4.72;1.63;;;28.80;83.40;;;;;;5034572;28;20045;-77
2022/08/10 09:52:00;;;;;;;2.38;1.02;;;28.90;80.40;;;;;;5034236;28;20431;-78
2022/08/10 09:54:29;;;;;;;5.90;1.35;;;29.00;82.00;;;;;;5034462;28;20033;-77
2022/08/10 09:57:09;;;;;;;2.38;0.93;;;29.30;77.40;;;;;;5052316;28;20523;-76
2022/08/10 09:59:55;;;;;;;4.75;1.20;;;29.30;67.00;;;;;;5034100;28;20084;-76
2022/08/10 10:02:49;;;;;;;3.72;1.30;;;29.30;70.50;;;;;;5034043;28;20102;-76
2022/08/10 10:05:52;;;;;;;1.95;1.20;;;29.20;58.60;;;;;;5034255;28;20484;-77
2022/08/10 10:08:28;;;;;;;4.07;1.08;;;29.20;65.40;;;;;;5034090;28;20079;-77
2022/08/10 10:11:18;;;;;;;2.13;1.30;;;29.20;71.70;;;;;;5034069;28;20033;-77
2022/08/10 10:13:56;;;;;;;2.75;1.00;;;29.50;69.90;;;;;;5034261;28;20099;-77
2022/08/10 10:16:55;;;;;;;4.28;1.10;;;29.50;63.60;;;;;;5052043;28;20041;-76
2022/08/10 10:19:43;;;;;;;2.67;1.00;;;29.50;62.30;;;;;;5034172;28;20045;-76
2022/08/10 10:22:25;;;;;;;1.80;0.85;;;29.50;62.20;;;;;;5034012;28;20389;-76
2022/08/10 10:24:57;;;;;;;3.08;1.00;;;29.50;63.20;;;;;;5033958;28;20079;-76
2022/08/10 10:27:38;;;;;;;5.22;1.17;;;29.50;61.10;;;;;;5034009;28;20041;-75
2022/08/10 10:30:12;;;;;;;2.65;0.98;;;29.30;60.80;;;;;;5033741;28;20384;-75
2022/08/10 10:32:37;;;;;;;2.80;0.90;;;29.10;59.00;;;;;;5034113;28;20507;-76
2022/08/10 10:35:21;;;;;;;2.45;1.10;;;29.00;61.00;;;;;;5033916;28;20059;-76
2022/08/10 10:37:50;;;;;;;1.88;0.90;;;28.90;60.70;;;;;;5032960;28;20045;-77
2022/08/10 10:40:18;;;;;;;3.13;0.88;;;29.00;62.30;;;;;;5051156;28;20107;-76
2022/08/10 10:42:49;;;;;;;4.70;1.25;;;29.10;61.40;;;;;;5033892;28;20037;-76
2022/08/10 10:45:19;;;;;;;1.27;0.80;;;29.10;60.50;;;;;;5051493;28;20111;-76
2022/08/10 10:48:04;;;;;;;2.38;1.00;;;29.20;61.10;;;;;;5017125;28;20037;-76
2022/08/10 10:50:48;;;;;;;2.80;0.88;;;29.20;61.60;;;;;;5033091;28;20527;-76
2022/08/10 10:53:43;;;;;;;2.90;0.90;;;29.30;58.60;;;;;;5033712;28;20051;-76
2022/08/10 10:56:54;;;;;;;4.30;1.20;;;29.20;59.00;;;;;;5033998;28;20053;-76
2022/08/10 10:59:49;;;;;;;4.38;1.30;;;29.30;59.40;;;;;;5033848;28;20124;-76
2022/08/10 11:02:42;;;;;;;4.78;1.02;;;29.30;57.00;;;;;;5003321;28;20056;-76
2022/08/10 11:05:32;;;;;;;2.22;1.05;;;29.20;56.10;;;;;;5033218;28;20056;-75
2022/08/10 11:08:14;;;;;;;1.48;1.08;;;29.10;55.10;;;;;;5017054;28;20127;-75
2022/08/10 11:10:53;;;;;;;2.45;1.02;;;29.00;57.60;;;;;;5050790;28;20045;-76
2022/08/10 11:13:24;;;;;;;2.15;1.15;;;29.00;57.90;;;;;;5033116;28;20496;-75
2022/08/10 11:16:11;;;;;;;1.45;0.80;;;29.10;57.10;;;;;;5051053;28;20430;-75
2022/08/10 11:19:06;;;;;;;1.45;1.15;;;29.10;56.80;;;;;;5033288;28;20044;-76
2022/08/10 11:21:50;;;;;;;2.53;0.68;;;29.30;56.70;;;;;;5016878;28;20143;-77
2022/08/10 11:24:24;;;;;;;2.10;1.20;;;29.30;55.00;;;;;;5033295;28;20052;-77
2022/08/10 11:27:01;;;;;;;1.70;1.00;;;29.50;55.00;;;;;;5033052;28;20045;-77
2022/08/10 11:29:50;;;;;;;6.28;1.23;;;29.60;55.50;;;;;;5033375;28;20814;-76
2022/08/10 11:32:22;;;;;;;1.23;0.90;;;29.70;55.80;;;;;;5017184;28;20048;-75
2022/08/10 11:35:17;;;;;;;2.83;1.13;;;29.70;56.70;;;;;;5033007;28;20400;-77
2022/08/10 11:37:57;;;;;;;3.75;0.90;;;29.90;55.90;;;;;;5017033;28;20076;-77
2022/08/10 11:40:36;;;;;;;2.20;0.63;;;29.90;56.20;;;;;;5032900;28;20037;-76
2022/08/10 11:43:08;;;;;;;2.05;0.70;;;30.10;54.50;;;;;;5033136;28;20044;-76
2022/08/10 11:45:35;;;;;;;2.50;1.00;;;30.10;54.30;;;;;;5032993;28;20048;-76
2022/08/10 11:48:07;;;;;;;1.50;0.93;;;30.10;52.10;;;;;;5034536;28;20512;-76
2022/08/10 11:50:44;;;;;;;4.50;0.90;;;30.10;52.80;;;;;;5036659;28;20041;-77
2022/08/10 11:53:16;;;;;;;2.80;1.20;;;30.10;52.40;;;;;;5036842;28;20127;-76
2022/08/10 11:55:48;;;;;;;1.90;0.60;;;30.10;54.30;;;;;;5036742;28;20044;-77
2022/08/10 12:01:05;;;;;;;3.00;0.60;;;30.20;52.80;;;;;;5036309;28;20106;-76
2022/08/10 12:03:32;;;;;;;3.47;1.03;;;30.20;52.40;;;;;;5036580;28;20044;-76
2022/08/10 12:06:00;;;;;;;1.23;0.77;;;30.30;52.30;;;;;;5036751;28;20036;-76
2022/08/10 12:08:27;;;;;;;2.10;1.00;;;30.30;52.10;;;;;;5036399;28;20044;-77
2022/08/10 12:10:54;;;;;;;1.33;0.73;;;30.40;52.30;;;;;;5036177;28;20072;-76
2022/08/10 12:13:34;;;;;;;5.32;0.88;;;30.40;51.70;;;;;;5036372;28;20044;-77
2022/08/10 12:16:08;;;;;;;2.28;1.00;;;30.30;52.00;;;;;;5036367;28;20045;-77
2022/08/10 12:18:46;;;;;;;0.98;0.73;;;30.20;52.90;;;;;;5036345;28;20055;-76
2022/08/10 12:21:22;;;;;;;1.40;0.75;;;30.20;51.80;;;;;;5036208;28;20049;-76
2022/08/10 12:24:03;;;;;;;3.78;0.90;;;30.10;51.70;;;;;;5036303;28;20065;-76
2022/08/10 12:26:43;;;;;;;4.37;1.03;;;30.10;52.70;;;;;;5036401;28;20786;-76
2022/08/10 12:29:37;;;;;;;3.25;0.90;;;30.30;52.80;;;;;;5036222;28;20318;-76
2022/08/10 12:32:10;;;;;;;0.95;0.60;;;30.30;50.50;;;;;;5053851;28;20074;-76
2022/08/10 12:34:46;;;;;;;7.22;1.10;;;30.10;52.10;;;;;;5035869;28;20076;-77
2022/08/10 12:37:24;;;;;;;2.35;1.00;;;30.00;52.50;;;;;;5036328;28;20037;-77
2022/08/10 12:39:59;;;;;;;7.68;1.08;;;30.10;51.90;;;;;;5036069;28;20048;-76
2022/08/10 12:42:34;;;;;;;4.35;1.20;;;30.10;51.50;;;;;;5036055;28;20092;-76
2022/08/10 12:45:15;;;;;;;3.00;1.40;;;30.10;51.50;;;;;;5053835;28;20099;-77
2022/08/10 12:48:00;;;;;;;3.58;0.63;;;30.10;49.80;;;;;;5019697;28;20506;-76
2022/08/10 12:50:28;;;;;;;5.43;0.90;;;30.10;52.10;;;;;;5045174;28;20060;-76
2022/08/10 12:52:56;;;;;;;2.75;0.88;;;30.10;51.10;;;;;;5047456;28;20041;-78
2022/08/10 12:55:23;;;;;;;1.85;0.90;;;30.10;50.40;;;;;;5045106;28;20045;-77
2022/08/10 12:57:52;;;;;;;2.63;1.08;;;30.10;50.00;;;;;;5035712;28;20491;-76
2022/08/10 13:00:18;;;;;;;2.00;0.98;;;30.00;50.70;;;;;;5052236;28;20120;-76
2022/08/10 13:02:45;;;;;;;1.05;0.80;;;29.80;50.80;;;;;;5035742;28;20144;-76
2022/08/10 13:05:13;;;;;;;1.88;0.90;;;29.60;50.10;;;;;;5052450;28;20478;-77
2022/08/10 13:07:42;;;;;;;3.28;1.00;;;29.50;50.30;;;;;;5019176;28;20116;-77
2022/08/10 13:10:13;;;;;;;3.80;0.90;;;29.50;50.40;;;;;;5035033;28;20096;-77
2022/08/10 13:12:43;;;;;;;3.30;0.80;;;29.50;49.70;;;;;;5035841;28;20041;-77
2022/08/10 13:15:16;;;;;;;1.35;0.80;;;29.50;50.60;;;;;;5035160;28;20523;-76
2022/08/10 13:17:48;;;;;;;3.67;1.00;;;29.60;50.90;;;;;;5035129;28;20083;-77